Time;durP1;ratioP1;P1;durP2;ratioP2;P2;SDS_P1;SDS_P2;PMS_P1;PMS_P2;Temp;Humidity;BMP_temperature;BMP_pressure;BME280_temperature;BME280_humidity;BME280_pressure;Samples;Min_cycle;Max_cycle;Signal;HPM_P1;HPM_P2
2022/03/08 00:00:43;;;;;;;5.20;4.78;;;;;;;1.44;51.83;101739.47;5029432;27;20090;-70
2022/03/08 00:03:08;;;;;;;5.57;5.10;;;;;;;1.42;51.85;101730.88;5031422;28;20117;-68
2022/03/08 00:05:33;;;;;;;5.60;5.20;;;;;;;1.53;51.43;101729.59;5017100;28;20021;-70
2022/03/08 00:07:59;;;;;;;5.70;5.20;;;;;;;1.57;51.13;101729.50;5015377;28;20643;-70
2022/03/08 00:10:25;;;;;;;5.00;4.60;;;;;;;1.67;51.02;101725.66;5011404;27;20773;-71
2022/03/08 00:12:51;;;;;;;5.30;4.90;;;;;;;1.80;50.97;101728.66;4997228;28;20075;-71
2022/03/08 00:15:21;;;;;;;5.25;4.85;;;;;;;1.78;50.95;101725.28;5025733;27;20862;-69
2022/03/08 00:17:47;;;;;;;5.40;5.00;;;;;;;1.79;51.25;101720.00;5030015;28;20128;-69
2022/03/08 00:20:13;;;;;;;5.53;5.05;;;;;;;1.75;51.08;101722.75;5034389;27;20575;-72
2022/03/08 00:22:38;;;;;;;5.30;4.82;;;;;;;1.64;51.30;101725.75;5047415;27;20756;-71
2022/03/08 00:25:05;;;;;;;6.90;5.15;;;;;;;1.67;51.31;101729.09;5031964;27;20027;-73
2022/03/08 00:27:30;;;;;;;4.95;4.65;;;;;;;1.71;51.23;101722.03;5036462;27;20509;-69
2022/03/08 00:29:56;;;;;;;5.15;4.80;;;;;;;1.51;51.40;101720.97;5028552;28;20025;-70
2022/03/08 00:32:21;;;;;;;5.80;5.30;;;;;;;1.45;52.59;101715.13;5032833;27;20027;-72
2022/03/08 00:34:47;;;;;;;5.32;4.82;;;;;;;1.43;52.85;101719.53;5031342;27;20252;-70
2022/03/08 00:37:12;;;;;;;5.50;5.03;;;;;;;1.43;53.13;101716.94;5024712;27;20123;-70
2022/03/08 00:39:38;;;;;;;5.40;5.00;;;;;;;1.28;52.77;101713.94;5031048;28;20068;-67
2022/03/08 00:42:03;;;;;;;5.13;4.72;;;;;;;1.10;53.51;101705.00;5012542;28;20204;-70
2022/03/08 00:44:29;;;;;;;5.82;5.25;;;;;;;1.01;54.14;101707.91;5025979;28;20376;-71
2022/03/08 00:46:54;;;;;;;5.30;4.80;;;;;;;0.95;54.65;101695.94;5016134;27;20084;-71
2022/03/08 00:49:19;;;;;;;5.75;5.15;;;;;;;0.98;54.61;101700.19;4993888;28;20066;-71
2022/03/08 00:51:45;;;;;;;5.40;5.00;;;;;;;0.96;54.07;101695.03;5010823;27;20086;-72
2022/03/08 00:54:10;;;;;;;5.65;5.15;;;;;;;1.02;54.30;101697.44;5014900;28;20788;-70
2022/03/08 00:56:36;;;;;;;5.53;5.03;;;;;;;0.99;53.77;101691.50;5015803;27;20028;-71
2022/03/08 00:59:01;;;;;;;5.43;5.03;;;;;;;1.03;53.30;101686.13;5031784;27;20132;-71
2022/03/08 01:01:26;;;;;;;5.72;5.20;;;;;;;1.08;53.09;101688.56;4999577;27;20974;-71
2022/03/08 01:03:52;;;;;;;6.72;5.18;;;;;;;1.13;53.27;101688.38;4989800;28;20029;-71
2022/03/08 01:06:17;;;;;;;6.00;5.40;;;;;;;1.17;52.94;101682.16;5001411;27;20033;-71
2022/03/08 01:08:42;;;;;;;5.32;4.93;;;;;;;1.28;52.30;101674.81;5034306;27;20367;-69
2022/03/08 01:11:08;;;;;;;5.47;4.95;;;;;;;1.42;51.91;101684.78;5029764;27;20316;-70
2022/03/08 01:13:33;;;;;;;5.63;5.22;;;;;;;1.59;51.78;101673.72;4996532;27;20074;-71
2022/03/08 01:15:59;;;;;;;6.22;5.45;;;;;;;1.49;51.41;101670.59;5011266;27;20933;-71
2022/03/08 01:18:24;;;;;;;5.45;5.05;;;;;;;1.54;51.14;101678.28;5031524;27;20037;-71
2022/03/08 01:20:49;;;;;;;5.30;4.90;;;;;;;1.58;51.14;101676.41;5031111;27;20029;-68
2022/03/08 01:23:15;;;;;;;6.60;5.13;;;;;;;1.60;51.07;101678.06;5028787;27;20036;-70
2022/03/08 01:25:40;;;;;;;5.47;5.07;;;;;;;1.53;51.31;101672.19;5032442;27;20589;-72
2022/03/08 01:28:07;;;;;;;5.20;4.78;;;;;;;1.49;51.46;101674.97;5024304;27;20041;-72
2022/03/08 01:30:32;;;;;;;6.75;4.53;;;;;;;1.51;51.46;101678.41;5028429;27;20017;-72
2022/03/08 01:32:58;;;;;;;5.50;5.00;;;;;;;1.55;51.60;101669.53;5028681;27;20086;-71
2022/03/08 01:35:23;;;;;;;5.88;5.40;;;;;;;1.52;51.69;101675.72;5048457;27;20219;-70
2022/03/08 01:37:49;;;;;;;5.50;5.00;;;;;;;1.59;51.02;101662.47;4995768;27;20130;-71
2022/03/08 01:40:15;;;;;;;5.10;4.80;;;;;;;1.68;50.74;101660.34;5029143;27;20005;-72
2022/03/08 01:42:42;;;;;;;5.65;5.15;;;;;;;1.67;50.90;101663.03;5012232;27;20918;-71
2022/03/08 01:45:08;;;;;;;5.32;4.88;;;;;;;1.61;51.00;101664.09;5028337;27;20093;-71
2022/03/08 01:47:33;;;;;;;5.00;4.60;;;;;;;1.65;50.98;101665.69;5027613;27;20017;-71
2022/03/08 01:49:58;;;;;;;5.28;4.88;;;;;;;1.67;50.71;101666.47;5011664;27;20438;-71
2022/03/08 01:52:24;;;;;;;6.00;5.13;;;;;;;1.64;50.95;101664.00;5010996;27;20012;-71
2022/03/08 01:54:50;;;;;;;6.20;4.97;;;;;;;1.65;50.97;101660.47;5013581;27;20021;-69
2022/03/08 01:57:15;;;;;;;5.63;5.13;;;;;;;1.65;50.95;101665.69;5034126;27;20880;-72
2022/03/08 01:59:41;;;;;;;5.07;4.68;;;;;;;1.63;51.35;101659.66;5032557;27;20293;-72
2022/03/08 02:02:06;;;;;;;5.40;5.00;;;;;;;1.74;50.71;101651.44;4993224;28;20099;-72
2022/03/08 02:04:32;;;;;;;5.35;4.95;;;;;;;1.72;50.66;101650.66;5012878;27;20072;-72
2022/03/08 02:06:57;;;;;;;5.70;5.20;;;;;;;1.76;50.75;101644.41;5011511;27;20055;-70
2022/03/08 02:09:23;;;;;;;5.40;5.00;;;;;;;1.68;50.38;101638.66;5031184;27;21042;-70
2022/03/08 02:11:48;;;;;;;5.10;4.70;;;;;;;1.69;50.47;101635.09;5028450;27;20753;-71
2022/03/08 02:14:17;;;;;;;5.72;5.32;;;;;;;1.55;51.56;101625.19;5010435;27;20209;-71
2022/03/08 02:16:43;;;;;;;5.32;4.93;;;;;;;1.64;51.21;101632.69;5014503;27;20063;-70
2022/03/08 02:19:12;;;;;;;5.43;5.03;;;;;;;1.53;51.48;101622.63;5023059;27;20451;-71
2022/03/08 02:21:37;;;;;;;5.78;5.28;;;;;;;1.60;51.26;101631.09;5028382;27;20065;-71
2022/03/08 02:24:03;;;;;;;5.50;5.00;;;;;;;1.61;51.46;101617.16;5032574;27;21250;-72
2022/03/08 02:26:28;;;;;;;5.53;5.00;;;;;;;1.69;51.06;101620.31;5010731;27;20020;-71
2022/03/08 02:28:54;;;;;;;5.90;5.40;;;;;;;1.65;51.22;101618.72;5010773;27;20237;-71
2022/03/08 02:31:19;;;;;;;6.20;5.25;;;;;;;1.63;51.44;101610.09;5034262;27;20441;-72
2022/03/08 02:33:44;;;;;;;5.78;5.28;;;;;;;1.57;51.44;101615.56;5049081;27;20023;-70
2022/03/08 02:36:10;;;;;;;6.05;5.50;;;;;;;1.59;51.92;101610.28;5038820;27;20817;-70
2022/03/08 02:38:35;;;;;;;6.32;5.82;;;;;;;1.50;51.36;101603.66;5028384;27;20329;-71
2022/03/08 02:41:01;;;;;;;6.13;5.63;;;;;;;1.59;51.61;101598.06;5025884;27;20480;-71
2022/03/08 02:43:26;;;;;;;5.75;5.25;;;;;;;1.64;51.31;101600.53;4993215;27;20047;-71
2022/03/08 02:45:52;;;;;;;6.03;5.43;;;;;;;1.68;51.71;101602.97;5018784;27;20005;-70
2022/03/08 02:48:17;;;;;;;5.45;5.05;;;;;;;1.71;51.26;101596.78;5032115;27;20032;-68
2022/03/08 02:50:42;;;;;;;5.38;4.90;;;;;;;1.64;51.13;101603.97;5029239;27;20915;-70
2022/03/08 02:53:08;;;;;;;5.60;5.20;;;;;;;1.65;51.77;101600.47;5031853;27;20370;-71
2022/03/08 02:55:34;;;;;;;5.25;4.88;;;;;;;1.66;51.54;101604.75;5031423;27;20819;-73
2022/03/08 02:58:00;;;;;;;5.78;5.28;;;;;;;1.70;50.85;101601.13;5022170;27;20009;-71
2022/03/08 03:00:26;;;;;;;5.78;5.28;;;;;;;1.74;51.41;101590.59;5026855;27;20029;-71
2022/03/08 03:02:51;;;;;;;5.20;4.80;;;;;;;1.71;51.48;101602.84;5030157;27;20537;-70
2022/03/08 03:05:17;;;;;;;5.75;5.30;;;;;;;1.73;50.72;101599.31;5030688;27;20021;-71
2022/03/08 03:07:43;;;;;;;5.78;5.10;;;;;;;1.66;51.59;101604.75;5007902;27;20082;-70
2022/03/08 03:10:13;;;;;;;6.20;5.63;;;;;;;1.69;51.30;101598.59;4996587;27;20042;-71
2022/03/08 03:12:38;;;;;;;6.20;5.60;;;;;;;1.73;50.54;101604.53;4993519;27;20028;-71
2022/03/08 03:15:05;;;;;;;5.68;5.28;;;;;;;1.70;51.84;101601.13;5012298;27;20028;-73
2022/03/08 03:17:31;;;;;;;5.55;5.07;;;;;;;1.67;51.75;101597.81;4995577;27;20009;-71
2022/03/08 03:19:56;;;;;;;5.72;5.22;;;;;;;1.65;51.06;101591.78;5009281;27;20017;-71
2022/03/08 03:22:22;;;;;;;5.82;5.38;;;;;;;1.67;51.52;101596.03;5007747;27;20017;-71
2022/03/08 03:24:47;;;;;;;6.88;5.80;;;;;;;1.67;51.48;101595.19;5026955;27;20041;-72
2022/03/08 03:27:12;;;;;;;5.35;4.95;;;;;;;1.63;51.84;101588.38;5032626;27;20013;-70
2022/03/08 03:29:38;;;;;;;5.30;4.80;;;;;;;1.61;51.73;101590.19;5029319;27;20997;-69
2022/03/08 03:32:03;;;;;;;5.78;5.38;;;;;;;1.55;51.57;101586.06;5026408;27;20521;-70
2022/03/08 03:34:29;;;;;;;6.40;5.80;;;;;;;1.46;52.17;101599.47;5027925;27;20021;-71
2022/03/08 03:36:54;;;;;;;6.07;5.47;;;;;;;1.42;52.28;101584.81;5007978;27;20024;-71
2022/03/08 03:39:20;;;;;;;5.80;5.25;;;;;;;1.51;52.04;101584.50;5029764;27;20024;-69
2022/03/08 03:41:45;;;;;;;5.70;5.28;;;;;;;1.39;51.86;101585.78;5033455;27;20021;-69
2022/03/08 03:44:10;;;;;;;5.90;5.45;;;;;;;1.53;51.79;101577.44;5027459;27;20335;-70
2022/03/08 03:46:36;;;;;;;5.88;5.38;;;;;;;1.48;52.00;101584.59;5026606;27;20708;-71
2022/03/08 03:49:01;;;;;;;5.97;5.57;;;;;;;1.51;52.02;101584.50;4996088;27;20135;-71
2022/03/08 03:51:27;;;;;;;5.82;5.43;;;;;;;1.46;51.91;101591.63;4990885;28;20028;-70
2022/03/08 03:53:52;;;;;;;6.00;5.43;;;;;;;1.49;52.32;101591.50;5030229;27;20113;-68
2022/03/08 03:56:17;;;;;;;6.22;5.72;;;;;;;1.41;52.56;101593.56;5029670;27;21072;-69
2022/03/08 03:58:43;;;;;;;5.93;5.45;;;;;;;1.49;52.04;101594.13;5019712;28;20036;-71
2022/03/08 04:01:08;;;;;;;6.05;5.63;;;;;;;1.46;51.74;101581.19;5025526;27;20017;-71
2022/03/08 04:03:34;;;;;;;5.60;5.20;;;;;;;1.50;51.77;101577.56;5011597;28;20155;-73
2022/03/08 04:05:59;;;;;;;6.07;5.43;;;;;;;1.46;52.01;101583.81;5010584;28;20438;-71
2022/03/08 04:08:24;;;;;;;6.22;5.50;;;;;;;1.39;52.36;101577.13;5029754;28;20021;-69
2022/03/08 04:10:50;;;;;;;6.22;5.65;;;;;;;1.36;52.47;101571.09;5028260;27;20197;-70
2022/03/08 04:13:15;;;;;;;6.20;5.70;;;;;;;1.18;52.70;101572.66;5020782;28;20323;-71
2022/03/08 04:15:42;;;;;;;6.80;6.18;;;;;;;1.18;52.53;101563.97;4995629;28;20106;-71
2022/03/08 04:18:07;;;;;;;6.13;5.63;;;;;;;1.13;52.67;101564.13;5027612;28;20579;-71
2022/03/08 04:20:33;;;;;;;5.97;5.35;;;;;;;1.23;52.47;101556.84;5025350;28;20017;-69
2022/03/08 04:22:58;;;;;;;5.72;5.25;;;;;;;1.22;52.57;101562.09;5028058;27;20128;-70
2022/03/08 04:25:23;;;;;;;6.43;5.93;;;;;;;1.15;52.67;101553.66;5035167;27;20444;-71
2022/03/08 04:27:49;;;;;;;6.10;5.63;;;;;;;1.19;52.65;101550.88;5044946;27;20133;-71
2022/03/08 04:30:14;;;;;;;6.05;5.55;;;;;;;1.20;52.79;101549.97;4987449;27;20032;-72
2022/03/08 04:32:40;;;;;;;6.22;5.63;;;;;;;1.18;52.93;101553.53;5029976;27;20116;-70
2022/03/08 04:35:06;;;;;;;6.15;5.55;;;;;;;1.27;52.03;101550.59;5029075;27;20025;-68
2022/03/08 04:37:31;;;;;;;6.82;6.10;;;;;;;1.24;52.28;101545.50;5030992;27;20395;-70
2022/03/08 04:39:57;;;;;;;5.88;5.45;;;;;;;1.24;52.28;101548.09;5012472;27;20540;-71
2022/03/08 04:42:22;;;;;;;6.25;5.75;;;;;;;1.23;52.33;101545.53;5028400;27;20028;-71
2022/03/08 04:44:47;;;;;;;6.55;6.05;;;;;;;1.26;51.87;101553.25;4996253;27;20041;-71
2022/03/08 04:47:13;;;;;;;6.18;5.70;;;;;;;1.27;51.64;101560.16;5028897;27;20032;-71
2022/03/08 04:49:38;;;;;;;6.45;5.80;;;;;;;1.19;51.91;101548.25;5032611;27;20892;-69
2022/03/08 04:52:04;;;;;;;6.43;5.88;;;;;;;1.13;52.23;101547.63;5033231;27;20403;-71
2022/03/08 04:54:29;;;;;;;6.90;6.20;;;;;;;1.09;51.87;101552.13;5028752;27;20505;-73
2022/03/08 04:56:55;;;;;;;6.28;5.68;;;;;;;1.13;52.25;101553.72;5009406;27;20777;-71
2022/03/08 04:59:20;;;;;;;6.60;5.95;;;;;;;1.17;52.38;101554.44;5033320;27;20032;-70
2022/03/08 05:01:46;;;;;;;6.90;6.30;;;;;;;1.13;52.36;101555.44;5032102;27;20029;-70
2022/03/08 05:04:11;;;;;;;6.72;6.13;;;;;;;1.15;52.04;101551.88;5032199;27;20029;-70
2022/03/08 05:06:36;;;;;;;7.65;5.85;;;;;;;1.11;52.10;101555.50;5004093;27;20029;-70
2022/03/08 05:09:02;;;;;;;5.88;5.45;;;;;;;1.03;52.19;101550.59;5016409;27;20436;-71
2022/03/08 05:11:27;;;;;;;7.00;6.28;;;;;;;1.11;52.19;101544.22;4991984;27;20863;-71
2022/03/08 05:13:53;;;;;;;6.35;5.85;;;;;;;1.11;52.09;101554.66;5029607;27;20527;-71
2022/03/08 05:16:18;;;;;;;6.25;5.75;;;;;;;1.09;52.13;101556.50;5012249;27;20089;-69
2022/03/08 05:18:43;;;;;;;6.57;5.93;;;;;;;1.02;52.52;101558.47;5031876;27;20900;-69
2022/03/08 05:21:09;;;;;;;7.07;6.20;;;;;;;1.13;52.24;101547.63;5032612;27;20425;-71
2022/03/08 05:23:34;;;;;;;6.43;5.90;;;;;;;1.06;52.08;101548.75;5027848;27;20262;-71
2022/03/08 05:26:00;;;;;;;6.75;6.15;;;;;;;1.07;52.03;101543.47;5013840;27;20027;-71
2022/03/08 05:28:25;;;;;;;6.63;5.95;;;;;;;1.05;52.16;101541.88;5024708;27;20029;-72
2022/03/08 05:30:53;;;;;;;7.22;5.93;;;;;;;1.09;52.40;101540.84;5027454;27;20028;-70
2022/03/08 05:33:19;;;;;;;6.40;5.80;;;;;;;1.07;52.28;101542.66;5042647;27;20042;-72
2022/03/08 05:35:44;;;;;;;6.35;5.75;;;;;;;1.10;52.04;101542.53;5028217;27;20017;-70
2022/03/08 05:38:09;;;;;;;6.95;5.97;;;;;;;1.14;52.17;101554.53;5029429;27;20376;-70
2022/03/08 05:40:35;;;;;;;7.32;5.90;;;;;;;1.20;51.73;101554.34;5031236;27;20047;-70
2022/03/08 05:43:01;;;;;;;7.25;6.55;;;;;;;1.19;51.90;101552.63;5022840;27;20021;-70
2022/03/08 05:45:27;;;;;;;6.18;5.60;;;;;;;1.18;51.80;101556.13;5022790;27;20094;-72
2022/03/08 05:47:52;;;;;;;8.02;6.13;;;;;;;1.14;51.86;101559.75;4991255;27;20381;-70
2022/03/08 05:50:18;;;;;;;6.20;5.60;;;;;;;1.20;51.56;101556.94;5025564;27;20095;-69
2022/03/08 05:52:43;;;;;;;7.30;6.00;;;;;;;1.15;51.48;101551.03;5031166;27;20025;-70
2022/03/08 05:55:08;;;;;;;7.30;6.13;;;;;;;1.20;51.53;101569.97;5000494;27;20720;-68
2022/03/08 05:57:37;;;;;;;5.95;5.35;;;;;;;1.18;51.21;101557.00;5022257;27;20009;-70
2022/03/08 06:00:04;;;;;;;6.07;5.57;;;;;;;1.19;51.01;101558.69;5032294;27;20013;-70
2022/03/08 06:02:29;;;;;;;6.30;5.70;;;;;;;1.21;51.36;101566.44;5014750;27;20456;-70
2022/03/08 06:04:55;;;;;;;6.60;6.00;;;;;;;1.23;50.64;101569.88;5012399;27;20484;-70
2022/03/08 06:07:21;;;;;;;6.28;5.78;;;;;;;1.29;50.52;101574.00;5029642;27;20033;-70
2022/03/08 06:09:46;;;;;;;6.43;5.93;;;;;;;1.30;50.47;101571.34;5023767;27;20037;-69
2022/03/08 06:12:12;;;;;;;6.40;5.85;;;;;;;1.30;50.65;101575.72;5016084;27;20028;-70
2022/03/08 06:14:38;;;;;;;6.45;5.85;;;;;;;1.29;50.85;101574.84;4997942;28;20463;-69
2022/03/08 06:17:05;;;;;;;6.10;5.55;;;;;;;1.25;50.81;101557.59;5029533;27;20068;-68
2022/03/08 06:19:30;;;;;;;6.60;6.00;;;;;;;1.26;51.20;101567.13;5034566;27;20016;-69
2022/03/08 06:21:56;;;;;;;6.20;5.70;;;;;;;1.29;50.81;101577.44;5038513;27;20494;-68
2022/03/08 06:24:21;;;;;;;6.35;5.82;;;;;;;1.25;50.90;101565.44;5031356;27;20045;-71
2022/03/08 06:26:47;;;;;;;6.55;5.95;;;;;;;1.26;50.69;101574.97;5034455;27;20029;-70
2022/03/08 06:29:12;;;;;;;6.35;5.85;;;;;;;1.24;51.13;101571.56;5025541;27;20525;-70
2022/03/08 06:31:37;;;;;;;6.72;6.13;;;;;;;1.23;51.15;101574.22;5037785;27;20138;-70
2022/03/08 06:34:03;;;;;;;6.50;5.90;;;;;;;1.33;51.63;101573.81;5034105;27;20761;-71
2022/03/08 06:36:29;;;;;;;6.28;5.78;;;;;;;1.23;50.99;101564.66;5022533;27;20020;-69
2022/03/08 06:38:54;;;;;;;6.20;5.70;;;;;;;1.46;50.29;101578.59;5032647;27;20477;-68
2022/03/08 06:41:20;;;;;;;6.60;6.00;;;;;;;1.44;50.58;101580.38;5021515;27;20449;-70
2022/03/08 06:43:45;;;;;;;6.82;6.07;;;;;;;1.48;50.13;101581.97;5032794;27;20543;-70
2022/03/08 06:46:11;;;;;;;6.68;5.90;;;;;;;1.46;50.56;101581.19;5033881;27;20124;-69
2022/03/08 06:48:36;;;;;;;6.53;6.03;;;;;;;1.50;50.39;101581.03;5032960;27;20017;-70
2022/03/08 06:51:02;;;;;;;6.95;6.25;;;;;;;1.50;50.41;101578.41;5029675;27;20097;-69
2022/03/08 06:53:27;;;;;;;6.28;5.63;;;;;;;1.58;50.12;101580.75;5029990;27;20017;-70
2022/03/08 06:55:53;;;;;;;6.72;6.15;;;;;;;1.56;50.54;101582.53;5032916;27;20457;-68
2022/03/08 06:58:18;;;;;;;7.15;5.35;;;;;;;1.58;49.92;101575.53;5030464;27;20036;-69
2022/03/08 07:00:43;;;;;;;8.23;6.38;;;;;;;1.67;49.81;101571.72;5033141;27;20735;-69
2022/03/08 07:03:09;;;;;;;6.75;6.10;;;;;;;1.78;49.53;101581.75;5013952;27;20032;-69
2022/03/08 07:05:36;;;;;;;8.80;6.07;;;;;;;1.84;49.49;101578.88;5033627;27;20901;-69
2022/03/08 07:08:02;;;;;;;6.38;5.65;;;;;;;1.91;49.09;101580.34;5033515;27;20020;-69
2022/03/08 07:10:27;;;;;;;5.95;5.45;;;;;;;1.95;49.28;101571.47;5032283;27;20017;-69
2022/03/08 07:12:52;;;;;;;6.00;5.40;;;;;;;2.10;48.72;101566.56;5034830;27;20875;-69
2022/03/08 07:15:18;;;;;;;6.05;5.40;;;;;;;2.16;47.89;101579.38;5028871;27;20021;-69
2022/03/08 07:17:46;;;;;;;6.20;5.70;;;;;;;2.28;48.07;101571.03;5035552;27;20916;-70
2022/03/08 07:20:12;;;;;;;5.82;5.30;;;;;;;2.28;47.83;101580.63;5034916;27;20017;-69
2022/03/08 07:22:37;;;;;;;6.32;5.38;;;;;;;2.36;48.51;101587.25;4999041;27;20029;-69
2022/03/08 07:25:03;;;;;;;6.15;5.65;;;;;;;2.46;47.68;101586.88;5030836;27;20997;-70
2022/03/08 07:27:29;;;;;;;8.02;5.72;;;;;;;2.52;47.46;101589.22;5036360;27;20268;-69
2022/03/08 07:29:54;;;;;;;5.97;5.47;;;;;;;2.55;47.17;101578.63;5032534;27;20040;-70
2022/03/08 07:32:20;;;;;;;6.68;5.63;;;;;;;2.70;47.42;101578.00;5033972;27;20025;-70
2022/03/08 07:34:45;;;;;;;6.47;5.85;;;;;;;2.72;47.22;101581.41;5017005;27;20032;-69
2022/03/08 07:37:10;;;;;;;5.90;5.43;;;;;;;2.75;46.65;101576.03;5034823;27;20085;-69
2022/03/08 07:39:36;;;;;;;6.30;5.68;;;;;;;2.83;47.25;101561.78;5014252;27;20859;-69
2022/03/08 07:42:01;;;;;;;6.35;5.75;;;;;;;2.90;47.58;101573.66;5033894;27;20033;-70
2022/03/08 07:44:26;;;;;;;6.60;5.63;;;;;;;2.95;46.88;101571.72;5024065;27;20778;-71
2022/03/08 07:46:52;;;;;;;5.72;5.32;;;;;;;3.04;46.81;101580.91;5015685;27;20040;-71
2022/03/08 07:49:17;;;;;;;6.25;5.75;;;;;;;3.11;46.69;101574.50;5008638;27;20826;-72
2022/03/08 07:51:43;;;;;;;5.93;5.43;;;;;;;3.26;46.34;101575.59;5012252;27;20545;-68
2022/03/08 07:54:08;;;;;;;6.70;6.10;;;;;;;3.30;46.30;101571.91;5031723;27;20257;-69
2022/03/08 08:03:18;;;;;;;6.30;5.63;;;;;;;3.61;46.50;101575.75;5030574;27;20019;-71
2022/03/08 08:05:43;;;;;;;6.20;5.70;;;;;;;3.69;46.11;101573.59;5030440;27;20044;-70
2022/03/08 08:08:08;;;;;;;6.32;5.82;;;;;;;3.82;46.11;101575.66;5032101;27;20324;-69
2022/03/08 08:10:34;;;;;;;6.10;5.50;;;;;;;3.86;45.67;101575.41;5025198;27;20037;-69
2022/03/08 08:12:59;;;;;;;6.15;5.55;;;;;;;3.95;45.62;101576.78;5032161;27;20869;-69
2022/03/08 08:15:25;;;;;;;6.15;5.60;;;;;;;4.06;44.85;101579.72;5012383;27;20131;-69
2022/03/08 08:17:50;;;;;;;5.90;5.50;;;;;;;4.13;44.88;101559.31;5017686;27;20021;-69
2022/03/08 08:20:16;;;;;;;5.95;5.35;;;;;;;4.18;44.91;101573.03;5014722;27;20029;-70
2022/03/08 08:22:41;;;;;;;5.90;5.40;;;;;;;4.35;44.09;101576.59;5017130;27;20888;-71
2022/03/08 08:25:07;;;;;;;5.80;5.30;;;;;;;4.38;43.94;101574.66;5012972;27;20566;-70
2022/03/08 08:27:32;;;;;;;6.18;5.68;;;;;;;4.48;44.08;101569.81;5034899;27;20046;-72
2022/03/08 08:29:58;;;;;;;5.70;5.30;;;;;;;4.64;43.05;101569.91;5017407;27;20091;-70
2022/03/08 08:32:23;;;;;;;5.90;5.50;;;;;;;4.60;43.12;101569.19;5025361;27;20040;-70
2022/03/08 08:34:49;;;;;;;5.45;5.13;;;;;;;4.82;42.70;101582.06;5023096;27;20595;-71
2022/03/08 08:37:14;;;;;;;6.93;5.20;;;;;;;4.91;41.88;101567.63;5019590;27;20230;-69
2022/03/08 08:39:39;;;;;;;6.53;6.03;;;;;;;4.97;41.97;101575.16;5036941;27;20013;-71
2022/03/08 08:42:05;;;;;;;5.75;5.35;;;;;;;5.12;43.34;101572.69;5036022;27;20841;-69
2022/03/08 08:44:30;;;;;;;5.93;5.32;;;;;;;5.24;41.87;101565.94;5037624;27;20035;-69
2022/03/08 08:46:55;;;;;;;7.15;5.70;;;;;;;5.47;41.12;101568.19;5034879;27;20206;-68
2022/03/08 08:49:21;;;;;;;5.85;5.40;;;;;;;5.62;41.02;101568.25;5035037;27;20033;-69
2022/03/08 08:51:46;;;;;;;6.18;5.47;;;;;;;5.79;41.18;101562.06;5017277;27;20492;-69
2022/03/08 08:54:12;;;;;;;5.22;4.80;;;;;;;5.99;41.10;101568.88;5034843;27;20347;-70
2022/03/08 08:56:38;;;;;;;5.47;5.07;;;;;;;6.33;40.77;101569.56;5039770;27;20180;-70
2022/03/08 08:59:04;;;;;;;5.72;5.20;;;;;;;6.50;39.92;101564.19;5037738;27;20194;-69
2022/03/08 09:01:29;;;;;;;9.63;4.93;;;;;;;6.37;38.58;101568.44;5019187;27;20441;-70
2022/03/08 09:03:55;;;;;;;5.60;5.10;;;;;;;6.55;38.04;101555.19;5039024;27;20057;-71
2022/03/08 09:06:20;;;;;;;5.20;4.80;;;;;;;6.77;37.46;101560.84;5036263;27;20025;-71
2022/03/08 09:08:46;;;;;;;5.70;5.00;;;;;;;6.85;37.56;101553.34;5010688;27;20021;-71
2022/03/08 09:11:11;;;;;;;5.40;4.90;;;;;;;6.99;36.91;101549.03;5016845;27;20028;-70
2022/03/08 09:13:37;;;;;;;6.28;5.07;;;;;;;7.36;37.56;101547.59;5017925;28;20936;-72
2022/03/08 09:16:03;;;;;;;4.97;4.55;;;;;;;7.21;35.26;101543.28;5012766;27;20032;-69
2022/03/08 09:18:28;;;;;;;5.65;4.80;;;;;;;7.37;35.89;101551.06;5034157;27;20029;-69
2022/03/08 09:20:53;;;;;;;5.10;4.70;;;;;;;7.71;35.57;101551.56;5036923;27;20792;-70
2022/03/08 09:23:19;;;;;;;5.13;4.70;;;;;;;7.88;34.40;101538.16;5036848;27;20032;-69
2022/03/08 09:25:44;;;;;;;5.97;4.50;;;;;;;8.13;35.38;101541.81;5021069;27;20033;-70
2022/03/08 09:28:10;;;;;;;5.20;4.70;;;;;;;8.27;33.92;101538.28;5040060;27;20040;-70
2022/03/08 09:30:37;;;;;;;4.45;4.10;;;;;;;8.66;33.62;101538.34;5023514;27;20117;-70
2022/03/08 09:33:03;;;;;;;5.00;4.60;;;;;;;9.24;32.67;101538.75;5039829;27;20204;-71
2022/03/08 09:35:28;;;;;;;4.65;4.25;;;;;;;9.70;32.08;101534.59;5035255;27;20425;-70
2022/03/08 09:37:54;;;;;;;4.55;4.25;;;;;;;9.90;32.65;101525.19;5038184;27;20001;-72
2022/03/08 09:40:19;;;;;;;4.40;4.10;;;;;;;10.26;30.54;101540.13;5030070;27;20029;-70
2022/03/08 09:42:45;;;;;;;4.75;4.03;;;;;;;10.40;30.29;101543.59;5039517;27;20506;-71
2022/03/08 09:45:10;;;;;;;4.32;3.83;;;;;;;10.46;31.06;101536.03;5043893;27;20792;-70
2022/03/08 09:47:36;;;;;;;4.32;4.03;;;;;;;10.47;30.44;101534.22;5047751;27;20362;-70
2022/03/08 09:50:02;;;;;;;4.72;4.43;;;;;;;10.34;29.81;101528.16;5037833;27;20364;-70
2022/03/08 09:52:27;;;;;;;5.07;4.22;;;;;;;10.99;30.81;101521.41;5036037;27;20021;-70
2022/03/08 09:54:53;;;;;;;4.50;4.20;;;;;;;11.12;29.56;101524.78;5037560;27;20455;-69
2022/03/08 09:57:22;;;;;;;7.85;4.20;;;;;;;11.57;29.08;101525.69;5019609;27;20898;-70
2022/03/08 09:59:47;;;;;;;4.88;4.35;;;;;;;11.48;28.41;101520.16;5039332;27;20157;-69
2022/03/08 10:02:14;;;;;;;4.85;4.28;;;;;;;10.97;29.00;101521.53;5019041;27;20409;-70
2022/03/08 10:04:39;;;;;;;4.28;3.90;;;;;;;11.07;28.24;101520.81;5021064;27;20958;-70
2022/03/08 10:07:11;;;;;;;4.43;4.10;;;;;;;11.94;28.48;101515.59;5009763;27;20040;-69
2022/03/08 10:09:37;;;;;;;4.10;3.72;;;;;;;11.89;26.66;101517.75;5037196;27;20483;-70
2022/03/08 10:12:13;;;;;;;5.22;4.18;;;;;;;11.46;26.76;101511.50;5035075;27;20773;-70
2022/03/08 10:14:39;;;;;;;5.20;3.72;;;;;;;11.17;27.44;101505.88;5023968;27;20431;-69
2022/03/08 10:17:09;;;;;;;3.90;3.50;;;;;;;11.72;26.85;101500.59;5045679;27;20017;-72
2022/03/08 10:19:53;;;;;;;3.50;3.22;;;;;;;12.64;25.95;101500.00;5011351;27;20431;-69
2022/03/08 10:22:24;;;;;;;3.80;3.50;;;;;;;11.77;26.54;101492.25;5027683;27;20025;-72
2022/03/08 10:24:50;;;;;;;3.20;3.00;;;;;;;12.70;26.18;101490.69;5024803;28;20025;-71
2022/03/08 10:27:16;;;;;;;3.60;3.30;;;;;;;13.21;24.62;101496.88;5003004;27;20018;-69
2022/03/08 10:29:42;;;;;;;5.18;3.40;;;;;;;13.63;25.35;101490.56;5013802;27;20021;-72
2022/03/08 10:32:16;;;;;;;3.45;3.25;;;;;;;13.93;24.34;101483.44;5044042;27;20277;-71
2022/03/08 10:34:42;;;;;;;3.55;3.35;;;;;;;14.29;23.69;101473.03;5031844;27;20243;-70
2022/03/08 10:37:17;;;;;;;4.78;3.55;;;;;;;13.98;23.55;101484.69;5019894;27;20652;-71
2022/03/08 10:39:51;;;;;;;4.45;3.50;;;;;;;13.99;23.90;101477.53;5038847;27;20065;-71
2022/03/08 10:42:20;;;;;;;3.53;3.33;;;;;;;13.93;24.04;101478.13;5040161;27;20177;-71
2022/03/08 10:44:46;;;;;;;3.80;3.60;;;;;;;13.71;24.52;101478.25;5029711;27;20034;-71
2022/03/08 10:47:12;;;;;;;3.90;3.65;;;;;;;14.34;23.92;101481.41;5016424;27;20441;-71
2022/03/08 10:49:49;;;;;;;5.50;3.40;;;;;;;14.43;23.22;101470.75;5047727;27;20638;-70
2022/03/08 10:52:14;;;;;;;4.00;3.20;;;;;;;15.18;24.29;101467.25;5028106;28;20033;-70
2022/03/08 10:54:40;;;;;;;3.58;3.38;;;;;;;15.52;23.44;101468.44;5026535;28;20026;-72
2022/03/08 10:57:05;;;;;;;3.47;3.38;;;;;;;15.25;22.90;101470.16;5039193;27;20873;-70
2022/03/08 10:59:31;;;;;;;4.00;3.67;;;;;;;14.62;23.10;101463.72;5050307;27;20096;-71
2022/03/08 11:01:56;;;;;;;3.80;3.60;;;;;;;14.96;23.17;101468.50;5049475;27;20017;-72
2022/03/08 11:04:22;;;;;;;3.92;3.60;;;;;;;14.20;23.25;101453.41;5050428;27;20036;-71
2022/03/08 11:06:50;;;;;;;4.20;3.70;;;;;;;14.31;23.60;101458.56;5022820;27;20013;-73
2022/03/08 11:09:17;;;;;;;4.10;3.63;;;;;;;14.68;23.37;101440.97;5000504;27;20016;-68
2022/03/08 11:11:43;;;;;;;3.70;3.50;;;;;;;14.84;23.58;101443.84;5017394;27;20091;-71
2022/03/08 11:14:08;;;;;;;4.70;3.80;;;;;;;15.37;23.10;101436.09;5047355;27;20124;-71
2022/03/08 11:16:34;;;;;;;3.58;3.28;;;;;;;15.50;22.91;101435.72;5029004;27;20036;-71
2022/03/08 11:18:59;;;;;;;3.70;3.40;;;;;;;15.87;22.32;101440.09;5038829;27;20021;-70
2022/03/08 11:21:24;;;;;;;4.22;3.88;;;;;;;15.93;21.48;101444.81;5046475;27;20025;-71
2022/03/08 11:23:51;;;;;;;3.83;3.58;;;;;;;15.97;21.26;101428.31;5031168;27;20128;-69
2022/03/08 11:26:16;;;;;;;3.92;3.70;;;;;;;15.89;22.11;101419.44;5030658;27;20739;-72
2022/03/08 11:28:45;;;;;;;4.05;3.72;;;;;;;15.96;22.31;101431.16;5033056;27;20464;-72
2022/03/08 11:31:11;;;;;;;3.53;3.38;;;;;;;16.06;21.88;101437.25;5013872;27;20406;-71